sensor_id;sensor_type;location;lat;lon;timestamp;pressure;altitude;pressure_sealevel;temperature
22269;BMP280;11303;50.772;19.670;2022-11-04T00:01:07;98583.13;;;7.91
22269;BMP280;11303;50.772;19.670;2022-11-04T00:03:09;98585.75;;;7.95
22269;BMP280;11303;50.772;19.670;2022-11-04T00:05:11;98582.34;;;7.98
22269;BMP280;11303;50.772;19.670;2022-11-04T00:07:13;98585.38;;;8.03
22269;BMP280;11303;50.772;19.670;2022-11-04T00:09:33;98586.88;;;8.04
22269;BMP280;11303;50.772;19.670;2022-11-04T00:11:34;98569.16;;;8.05
22269;BMP280;11303;50.772;19.670;2022-11-04T00:13:56;98565.38;;;8.06
22269;BMP280;11303;50.772;19.670;2022-11-04T00:16:00;98554.03;;;8.05
22269;BMP280;11303;50.772;19.670;2022-11-04T00:18:21;98557.06;;;8.04
22269;BMP280;11303;50.772;19.670;2022-11-04T00:20:22;98553.28;;;8.01
22269;BMP280;11303;50.772;19.670;2022-11-04T00:22:46;98553.69;;;8.00
22269;BMP280;11303;50.772;19.670;2022-11-04T00:25:08;98553.69;;;7.96
22269;BMP280;11303;50.772;19.670;2022-11-04T00:27:29;98551.78;;;7.93
22269;BMP280;11303;50.772;19.670;2022-11-04T00:29:49;98551.44;;;7.91
22269;BMP280;11303;50.772;19.670;2022-11-04T00:31:50;98560.13;;;7.88
22269;BMP280;11303;50.772;19.670;2022-11-04T00:34:10;98554.06;;;7.84
22269;BMP280;11303;50.772;19.670;2022-11-04T00:36:11;98555.97;;;7.80
22269;BMP280;11303;50.772;19.670;2022-11-04T00:38:13;98557.50;;;7.78
22269;BMP280;11303;50.772;19.670;2022-11-04T00:40:15;98571.44;;;7.75
22269;BMP280;11303;50.772;19.670;2022-11-04T00:42:16;98565.78;;;7.73
22269;BMP280;11303;50.772;19.670;2022-11-04T00:44:18;98558.22;;;7.71
22269;BMP280;11303;50.772;19.670;2022-11-04T00:46:20;98551.44;;;7.70
22269;BMP280;11303;50.772;19.670;2022-11-04T00:48:21;98549.19;;;7.69
22269;BMP280;11303;50.772;19.670;2022-11-04T00:50:23;98558.97;;;7.68
22269;BMP280;11303;50.772;19.670;2022-11-04T00:52:24;98556.34;;;7.68
22269;BMP280;11303;50.772;19.670;2022-11-04T00:54:26;98564.25;;;7.68
22269;BMP280;11303;50.772;19.670;2022-11-04T00:56:27;98555.22;;;7.69
22269;BMP280;11303;50.772;19.670;2022-11-04T00:58:29;98551.81;;;7.72
22269;BMP280;11303;50.772;19.670;2022-11-04T01:00:30;98555.22;;;7.76
22269;BMP280;11303;50.772;19.670;2022-11-04T01:02:32;98547.31;;;7.76
22269;BMP280;11303;50.772;19.670;2022-11-04T01:04:34;98543.16;;;7.75
22269;BMP280;11303;50.772;19.670;2022-11-04T01:06:35;98528.81;;;7.73
22269;BMP280;11303;50.772;19.670;2022-11-04T01:08:37;98528.81;;;7.73
22269;BMP280;11303;50.772;19.670;2022-11-04T01:10:38;98521.66;;;7.73
22269;BMP280;11303;50.772;19.670;2022-11-04T01:12:44;98527.31;;;7.75
22269;BMP280;11303;50.772;19.670;2022-11-04T01:14:46;98521.28;;;7.78
22269;BMP280;11303;50.772;19.670;2022-11-04T01:16:50;98525.41;;;7.79
22269;BMP280;11303;50.772;19.670;2022-11-04T01:18:51;98519.75;;;7.84
22269;BMP280;11303;50.772;19.670;2022-11-04T01:20:53;98519.00;;;7.87
22269;BMP280;11303;50.772;19.670;2022-11-04T01:22:55;98515.25;;;7.88
22269;BMP280;11303;50.772;19.670;2022-11-04T01:24:57;98524.66;;;7.89
22269;BMP280;11303;50.772;19.670;2022-11-04T01:26:58;98519.00;;;7.91
22269;BMP280;11303;50.772;19.670;2022-11-04T01:29:00;98510.69;;;7.92
22269;BMP280;11303;50.772;19.670;2022-11-04T01:31:10;98511.47;;;7.93
22269;BMP280;11303;50.772;19.670;2022-11-04T01:33:12;98494.09;;;7.92
22269;BMP280;11303;50.772;19.670;2022-11-04T01:35:13;98510.69;;;7.92
22269;BMP280;11303;50.772;19.670;2022-11-04T01:37:15;98506.19;;;7.89
22269;BMP280;11303;50.772;19.670;2022-11-04T01:39:16;98506.94;;;7.86
22269;BMP280;11303;50.772;19.670;2022-11-04T01:41:20;98492.97;;;7.86
22269;BMP280;11303;50.772;19.670;2022-11-04T01:43:30;98497.13;;;7.83
22269;BMP280;11303;50.772;19.670;2022-11-04T01:45:43;98499.03;;;7.79
22269;BMP280;11303;50.772;19.670;2022-11-04T01:47:59;98489.59;;;7.78
22269;BMP280;11303;50.772;19.670;2022-11-04T01:52:15;98485.84;;;7.72
22269;BMP280;11303;50.772;19.670;2022-11-04T01:54:19;98481.69;;;7.71
22269;BMP280;11303;50.772;19.670;2022-11-04T01:56:21;98475.66;;;7.71
22269;BMP280;11303;50.772;19.670;2022-11-04T01:58:32;98481.69;;;7.75
22269;BMP280;11303;50.772;19.670;2022-11-04T02:00:37;98465.09;;;7.74
22269;BMP280;11303;50.772;19.670;2022-11-04T02:03:08;98467.38;;;7.76
22269;BMP280;11303;50.772;19.670;2022-11-04T02:05:08;98467.00;;;7.77
22269;BMP280;11303;50.772;19.670;2022-11-04T02:07:10;98451.50;;;7.79
22269;BMP280;11303;50.772;19.670;2022-11-04T02:09:12;98448.88;;;7.79
22269;BMP280;11303;50.772;19.670;2022-11-04T02:11:14;98459.44;;;7.79
22269;BMP280;11303;50.772;19.670;2022-11-04T02:13:36;98451.50;;;7.79
22269;BMP280;11303;50.772;19.670;2022-11-04T02:15:49;98442.09;;;7.78
22269;BMP280;11303;50.772;19.670;2022-11-04T02:20:27;98446.22;;;7.79
22269;BMP280;11303;50.772;19.670;2022-11-04T02:31:33;98424.75;;;7.77
22269;BMP280;11303;50.772;19.670;2022-11-04T02:33:49;98418.72;;;7.73
22269;BMP280;11303;50.772;19.670;2022-11-04T02:36:03;98417.97;;;7.73
22269;BMP280;11303;50.772;19.670;2022-11-04T02:38:34;98411.19;;;7.72
22269;BMP280;11303;50.772;19.670;2022-11-04T02:40:40;98416.47;;;7.72
22269;BMP280;11303;50.772;19.670;2022-11-04T02:45:00;98411.94;;;7.76
22269;BMP280;11303;50.772;19.670;2022-11-04T02:47:15;98410.41;;;7.78
22269;BMP280;11303;50.772;19.670;2022-11-04T02:49:53;98411.16;;;7.79
22269;BMP280;11303;50.772;19.670;2022-11-04T02:52:01;98406.63;;;7.79
22269;BMP280;11303;50.772;19.670;2022-11-04T02:54:13;98411.56;;;7.77
22269;BMP280;11303;50.772;19.670;2022-11-04T02:56:18;98409.69;;;7.78
22269;BMP280;11303;50.772;19.670;2022-11-04T02:58:26;98402.13;;;7.76
22269;BMP280;11303;50.772;19.670;2022-11-04T03:00:30;98396.09;;;7.76
22269;BMP280;11303;50.772;19.670;2022-11-04T03:02:36;98389.69;;;7.73
22269;BMP280;11303;50.772;19.670;2022-11-04T03:04:44;98394.22;;;7.73
22269;BMP280;11303;50.772;19.670;2022-11-04T03:06:48;98393.84;;;7.74
22269;BMP280;11303;50.772;19.670;2022-11-04T03:08:53;98384.03;;;7.75
22269;BMP280;11303;50.772;19.670;2022-11-04T03:11:01;98382.13;;;7.75
22269;BMP280;11303;50.772;19.670;2022-11-04T03:13:12;98385.53;;;7.76
22269;BMP280;11303;50.772;19.670;2022-11-04T03:15:19;98379.50;;;7.75
22269;BMP280;11303;50.772;19.670;2022-11-04T03:17:32;98393.09;;;7.77
22269;BMP280;11303;50.772;19.670;2022-11-04T03:19:44;98389.31;;;7.78
22269;BMP280;11303;50.772;19.670;2022-11-04T03:21:53;98400.22;;;7.80
22269;BMP280;11303;50.772;19.670;2022-11-04T03:23:56;98390.03;;;7.82
22269;BMP280;11303;50.772;19.670;2022-11-04T03:26:08;98394.94;;;7.84
22269;BMP280;11303;50.772;19.670;2022-11-04T03:28:40;98394.19;;;7.87
22269;BMP280;11303;50.772;19.670;2022-11-04T03:30:47;98385.88;;;7.88
22269;BMP280;11303;50.772;19.670;2022-11-04T03:33:14;98384.75;;;7.89
22269;BMP280;11303;50.772;19.670;2022-11-04T03:35:18;98395.66;;;7.91
22269;BMP280;11303;50.772;19.670;2022-11-04T03:37:20;98383.97;;;7.92
22269;BMP280;11303;50.772;19.670;2022-11-04T03:39:22;98382.81;;;7.93
22269;BMP280;11303;50.772;19.670;2022-11-04T03:41:48;98372.66;;;7.95
22269;BMP280;11303;50.772;19.670;2022-11-04T03:43:50;98372.66;;;7.95
22269;BMP280;11303;50.772;19.670;2022-11-04T03:45:53;98377.16;;;7.95
22269;BMP280;11303;50.772;19.670;2022-11-04T03:47:55;98374.53;;;7.95
22269;BMP280;11303;50.772;19.670;2022-11-04T03:52:16;98372.25;;;7.97
22269;BMP280;11303;50.772;19.670;2022-11-04T03:54:18;98363.59;;;7.96
22269;BMP280;11303;50.772;19.670;2022-11-04T04:03:58;98354.16;;;7.95
22269;BMP280;11303;50.772;19.670;2022-11-04T04:06:09;98353.03;;;7.96
22269;BMP280;11303;50.772;19.670;2022-11-04T04:08:18;98361.69;;;7.97
22269;BMP280;11303;50.772;19.670;2022-11-04T04:12:40;98351.53;;;7.95
22269;BMP280;11303;50.772;19.670;2022-11-04T04:14:47;98347.75;;;7.96
22269;BMP280;11303;50.772;19.670;2022-11-04T04:16:51;98363.97;;;7.98
22269;BMP280;11303;50.772;19.670;2022-11-04T04:19:18;98343.97;;;7.97
22269;BMP280;11303;50.772;19.670;2022-11-04T04:21:25;98366.22;;;7.96
22269;BMP280;11303;50.772;19.670;2022-11-04T04:23:31;98368.47;;;7.98
22269;BMP280;11303;50.772;19.670;2022-11-04T04:25:54;98358.69;;;7.95
22269;BMP280;11303;50.772;19.670;2022-11-04T04:28:16;98361.69;;;7.93
22269;BMP280;11303;50.772;19.670;2022-11-04T04:30:18;98353.03;;;7.93
22269;BMP280;11303;50.772;19.670;2022-11-04T04:32:21;98342.09;;;7.91
22269;BMP280;11303;50.772;19.670;2022-11-04T04:34:29;98348.16;;;7.91
22269;BMP280;11303;50.772;19.670;2022-11-04T04:36:33;98346.63;;;7.90
22269;BMP280;11303;50.772;19.670;2022-11-04T04:38:40;98339.47;;;7.91
22269;BMP280;11303;50.772;19.670;2022-11-04T04:41:09;98341.00;;;7.88
22269;BMP280;11303;50.772;19.670;2022-11-04T04:43:30;98345.53;;;7.84
22269;BMP280;11303;50.772;19.670;2022-11-04T04:45:51;98340.63;;;7.83
22269;BMP280;11303;50.772;19.670;2022-11-04T04:47:55;98345.16;;;7.82
22269;BMP280;11303;50.772;19.670;2022-11-04T04:49:58;98338.38;;;7.81
22269;BMP280;11303;50.772;19.670;2022-11-04T04:52:03;98342.91;;;7.81
22269;BMP280;11303;50.772;19.670;2022-11-04T04:54:05;98338.03;;;7.76
22269;BMP280;11303;50.772;19.670;2022-11-04T04:56:07;98340.31;;;7.70
22269;BMP280;11303;50.772;19.670;2022-11-04T04:58:09;98346.38;;;7.67
22269;BMP280;11303;50.772;19.670;2022-11-04T05:00:14;98342.63;;;7.65
22269;BMP280;11303;50.772;19.670;2022-11-04T05:02:16;98330.56;;;7.60
22269;BMP280;11303;50.772;19.670;2022-11-04T05:04:18;98338.09;;;7.55
22269;BMP280;11303;50.772;19.670;2022-11-04T05:06:19;98336.97;;;7.49
22269;BMP280;11303;50.772;19.670;2022-11-04T05:08:21;98334.00;;;7.40
22269;BMP280;11303;50.772;19.670;2022-11-04T05:10:22;98338.94;;;7.34
22269;BMP280;11303;50.772;19.670;2022-11-04T05:12:24;98334.03;;;7.29
22269;BMP280;11303;50.772;19.670;2022-11-04T05:14:25;98328.00;;;7.29
22269;BMP280;11303;50.772;19.670;2022-11-04T05:16:28;98322.38;;;7.20
22269;BMP280;11303;50.772;19.670;2022-11-04T05:18:29;98326.13;;;7.12
22269;BMP280;11303;50.772;19.670;2022-11-04T05:20:31;98331.06;;;7.06
22269;BMP280;11303;50.772;19.670;2022-11-04T05:22:34;98324.66;;;7.00
22269;BMP280;11303;50.772;19.670;2022-11-04T05:24:36;98318.66;;;6.96
22269;BMP280;11303;50.772;19.670;2022-11-04T05:26:37;98326.94;;;6.98
22269;BMP280;11303;50.772;19.670;2022-11-04T05:28:39;98316.38;;;6.98
22269;BMP280;11303;50.772;19.670;2022-11-04T05:30:41;98317.91;;;6.96
22269;BMP280;11303;50.772;19.670;2022-11-04T05:32:42;98316.38;;;6.91
22269;BMP280;11303;50.772;19.670;2022-11-04T05:34:44;98323.53;;;6.87
22269;BMP280;11303;50.772;19.670;2022-11-04T05:36:45;98314.13;;;6.83
22269;BMP280;11303;50.772;19.670;2022-11-04T05:38:51;98313.00;;;6.80
22269;BMP280;11303;50.772;19.670;2022-11-04T05:40:56;98322.78;;;6.76
22269;BMP280;11303;50.772;19.670;2022-11-04T05:42:59;98311.13;;;6.70
22269;BMP280;11303;50.772;19.670;2022-11-04T05:45:00;98306.59;;;6.67
22269;BMP280;11303;50.772;19.670;2022-11-04T05:47:02;98319.38;;;6.65
22269;BMP280;11303;50.772;19.670;2022-11-04T05:49:03;98312.63;;;6.61
22269;BMP280;11303;50.772;19.670;2022-11-04T05:51:05;98314.13;;;6.58
22269;BMP280;11303;50.772;19.670;2022-11-04T05:53:07;98311.09;;;6.56
22269;BMP280;11303;50.772;19.670;2022-11-04T05:55:09;98300.94;;;6.55
22269;BMP280;11303;50.772;19.670;2022-11-04T05:57:10;98309.97;;;6.54
22269;BMP280;11303;50.772;19.670;2022-11-04T05:59:12;98307.34;;;6.54
22269;BMP280;11303;50.772;19.670;2022-11-04T06:01:29;98304.34;;;6.55
22269;BMP280;11303;50.772;19.670;2022-11-04T06:03:31;98310.38;;;6.56
22269;BMP280;11303;50.772;19.670;2022-11-04T06:05:32;98312.63;;;6.61
22269;BMP280;11303;50.772;19.670;2022-11-04T06:07:34;98315.63;;;6.63
22269;BMP280;11303;50.772;19.670;2022-11-04T06:09:35;98305.84;;;6.63
22269;BMP280;11303;50.772;19.670;2022-11-04T06:11:40;98314.88;;;6.69
22269;BMP280;11303;50.772;19.670;2022-11-04T06:13:41;98320.91;;;6.73
22269;BMP280;11303;50.772;19.670;2022-11-04T06:15:43;98312.22;;;6.76
22269;BMP280;11303;50.772;19.670;2022-11-04T06:17:44;98309.25;;;6.81
22269;BMP280;11303;50.772;19.670;2022-11-04T06:19:47;98306.22;;;6.86
22269;BMP280;11303;50.772;19.670;2022-11-04T06:21:55;98316.38;;;6.91
22269;BMP280;11303;50.772;19.670;2022-11-04T06:23:58;98311.09;;;6.98
22269;BMP280;11303;50.772;19.670;2022-11-04T06:25:59;98309.59;;;7.04
22269;BMP280;11303;50.772;19.670;2022-11-04T06:28:01;98299.00;;;7.11
22269;BMP280;11303;50.772;19.670;2022-11-04T06:30:03;98304.31;;;7.18
22269;BMP280;11303;50.772;19.670;2022-11-04T06:32:10;98309.53;;;7.25
22269;BMP280;11303;50.772;19.670;2022-11-04T06:34:12;98305.41;;;7.31
22269;BMP280;11303;50.772;19.670;2022-11-04T06:36:14;98296.69;;;7.41
22269;BMP280;11303;50.772;19.670;2022-11-04T06:38:16;98307.22;;;7.48
22269;BMP280;11303;50.772;19.670;2022-11-04T06:40:18;98306.06;;;7.56
22269;BMP280;11303;50.772;19.670;2022-11-04T06:42:19;98303.41;;;7.63
22269;BMP280;11303;50.772;19.670;2022-11-04T06:44:21;98304.50;;;7.69
22269;BMP280;11303;50.772;19.670;2022-11-04T06:46:35;98294.66;;;7.77
22269;BMP280;11303;50.772;19.670;2022-11-04T06:48:37;98296.13;;;7.85
22269;BMP280;11303;50.772;19.670;2022-11-04T06:50:39;98282.47;;;8.00
22269;BMP280;11303;50.772;19.670;2022-11-04T06:52:40;98298.19;;;8.21
22269;BMP280;11303;50.772;19.670;2022-11-04T06:54:43;98290.59;;;8.30
22269;BMP280;11303;50.772;19.670;2022-11-04T06:56:45;98296.84;;;8.47
22269;BMP280;11303;50.772;19.670;2022-11-04T06:58:50;98288.16;;;8.50
22269;BMP280;11303;50.772;19.670;2022-11-04T07:00:52;98288.19;;;8.43
22269;BMP280;11303;50.772;19.670;2022-11-04T07:02:55;98276.56;;;8.37
22269;BMP280;11303;50.772;19.670;2022-11-04T07:04:56;98277.66;;;8.39
22269;BMP280;11303;50.772;19.670;2022-11-04T07:07:03;98279.56;;;8.39
22269;BMP280;11303;50.772;19.670;2022-11-04T07:09:05;98276.56;;;8.40
22269;BMP280;11303;50.772;19.670;2022-11-04T07:11:06;98271.28;;;8.37
22269;BMP280;11303;50.772;19.670;2022-11-04T07:13:08;98274.28;;;8.39
22269;BMP280;11303;50.772;19.670;2022-11-04T07:15:10;98271.19;;;8.44
22269;BMP280;11303;50.772;19.670;2022-11-04T07:17:12;98270.31;;;8.64
22269;BMP280;11303;50.772;19.670;2022-11-04T07:19:14;98268.66;;;8.77
22269;BMP280;11303;50.772;19.670;2022-11-04T07:21:15;98272.00;;;8.81
22269;BMP280;11303;50.772;19.670;2022-11-04T07:23:17;98261.81;;;8.83
22269;BMP280;11303;50.772;19.670;2022-11-04T07:25:18;98260.66;;;8.84
22269;BMP280;11303;50.772;19.670;2022-11-04T07:27:20;98260.69;;;8.81
22269;BMP280;11303;50.772;19.670;2022-11-04T07:29:22;98270.88;;;8.82
22269;BMP280;11303;50.772;19.670;2022-11-04T07:31:25;98251.22;;;8.83
22269;BMP280;11303;50.772;19.670;2022-11-04T07:33:27;98255.38;;;8.84
22269;BMP280;11303;50.772;19.670;2022-11-04T07:35:29;98254.97;;;8.86
22269;BMP280;11303;50.772;19.670;2022-11-04T07:37:30;98259.84;;;8.91
22269;BMP280;11303;50.772;19.670;2022-11-04T07:39:32;98251.50;;;8.96
22269;BMP280;11303;50.772;19.670;2022-11-04T07:41:34;98256.25;;;9.08
22269;BMP280;11303;50.772;19.670;2022-11-04T07:43:35;98245.16;;;9.20
22269;BMP280;11303;50.772;19.670;2022-11-04T07:45:37;98257.19;;;9.24
22269;BMP280;11303;50.772;19.670;2022-11-04T07:47:39;98244.69;;;9.28
22269;BMP280;11303;50.772;19.670;2022-11-04T07:49:40;98235.50;;;9.36
22269;BMP280;11303;50.772;19.670;2022-11-04T07:51:42;98243.53;;;9.59
22269;BMP280;11303;50.772;19.670;2022-11-04T07:53:43;98253.16;;;9.73
22269;BMP280;11303;50.772;19.670;2022-11-04T07:55:45;98237.72;;;9.94
22269;BMP280;11303;50.772;19.670;2022-11-04T07:57:49;98235.22;;;10.10
22269;BMP280;11303;50.772;19.670;2022-11-04T07:59:51;98245.25;;;10.45
22269;BMP280;11303;50.772;19.670;2022-11-04T08:01:52;98237.34;;;10.84
22269;BMP280;11303;50.772;19.670;2022-11-04T08:03:54;98231.81;;;10.75
22269;BMP280;11303;50.772;19.670;2022-11-04T08:05:57;98238.81;;;10.66
22269;BMP280;11303;50.772;19.670;2022-11-04T08:07:59;98241.41;;;10.46
22269;BMP280;11303;50.772;19.670;2022-11-04T08:10:00;98227.66;;;10.32
22269;BMP280;11303;50.772;19.670;2022-11-04T08:12:03;98221.41;;;10.22
22269;BMP280;11303;50.772;19.670;2022-11-04T08:14:05;98229.75;;;10.21
22269;BMP280;11303;50.772;19.670;2022-11-04T08:16:10;98230.16;;;10.19
22269;BMP280;11303;50.772;19.670;2022-11-04T08:18:13;98219.19;;;10.17
22269;BMP280;11303;50.772;19.670;2022-11-04T08:20:15;98227.53;;;10.19
22269;BMP280;11303;50.772;19.670;2022-11-04T08:22:16;98223.72;;;10.20
22269;BMP280;11303;50.772;19.670;2022-11-04T08:24:18;98219.47;;;10.23
22269;BMP280;11303;50.772;19.670;2022-11-04T08:26:20;98217.94;;;10.25
22269;BMP280;11303;50.772;19.670;2022-11-04T08:28:24;98217.47;;;10.30
22269;BMP280;11303;50.772;19.670;2022-11-04T08:30:26;98214.38;;;10.35
22269;BMP280;11303;50.772;19.670;2022-11-04T08:32:28;98204.44;;;10.39
22269;BMP280;11303;50.772;19.670;2022-11-04T08:34:29;98205.81;;;10.47
22269;BMP280;11303;50.772;19.670;2022-11-04T08:36:34;98195.84;;;10.55
22269;BMP280;11303;50.772;19.670;2022-11-04T08:38:38;98207.75;;;10.66
22269;BMP280;11303;50.772;19.670;2022-11-04T08:40:40;98206.47;;;10.74
22269;BMP280;11303;50.772;19.670;2022-11-04T08:42:41;98205.66;;;10.77
22269;BMP280;11303;50.772;19.670;2022-11-04T08:44:43;98182.25;;;10.72
22269;BMP280;11303;50.772;19.670;2022-11-04T08:46:45;98185.38;;;10.67
22269;BMP280;11303;50.772;19.670;2022-11-04T08:48:47;98187.00;;;10.61
22269;BMP280;11303;50.772;19.670;2022-11-04T08:50:55;98179.16;;;10.54
22269;BMP280;11303;50.772;19.670;2022-11-04T08:52:57;98181.94;;;10.47
22269;BMP280;11303;50.772;19.670;2022-11-04T08:54:58;98186.50;;;10.47
22269;BMP280;11303;50.772;19.670;2022-11-04T08:57:00;98188.13;;;10.41
22269;BMP280;11303;50.772;19.670;2022-11-04T08:59:03;98188.72;;;10.29
22269;BMP280;11303;50.772;19.670;2022-11-04T09:01:05;98192.97;;;10.23
22269;BMP280;11303;50.772;19.670;2022-11-04T09:03:07;98199.56;;;10.15
22269;BMP280;11303;50.772;19.670;2022-11-04T09:05:09;98201.13;;;10.12
22269;BMP280;11303;50.772;19.670;2022-11-04T09:07:11;98199.66;;;10.08
22269;BMP280;11303;50.772;19.670;2022-11-04T09:09:14;98190.63;;;10.05
22269;BMP280;11303;50.772;19.670;2022-11-04T09:11:16;98189.16;;;10.04
22269;BMP280;11303;50.772;19.670;2022-11-04T09:13:18;98199.75;;;10.04
22269;BMP280;11303;50.772;19.670;2022-11-04T09:15:20;98193.97;;;10.09
22269;BMP280;11303;50.772;19.670;2022-11-04T09:17:22;98197.31;;;10.13
22269;BMP280;11303;50.772;19.670;2022-11-04T09:19:24;98199.97;;;10.13
22269;BMP280;11303;50.772;19.670;2022-11-04T09:21:26;98198.81;;;10.14
22269;BMP280;11303;50.772;19.670;2022-11-04T09:23:28;98206.31;;;10.19
22269;BMP280;11303;50.772;19.670;2022-11-04T09:25:30;98194.81;;;10.26
22269;BMP280;11303;50.772;19.670;2022-11-04T09:27:33;98189.50;;;10.29
22269;BMP280;11303;50.772;19.670;2022-11-04T09:29:35;98180.94;;;10.41
22269;BMP280;11303;50.772;19.670;2022-11-04T09:31:37;98175.34;;;10.55
22269;BMP280;11303;50.772;19.670;2022-11-04T09:33:39;98180.41;;;10.69
22269;BMP280;11303;50.772;19.670;2022-11-04T09:35:41;98181.78;;;10.77
22269;BMP280;11303;50.772;19.670;2022-11-04T09:37:43;98178.16;;;10.87
22269;BMP280;11303;50.772;19.670;2022-11-04T09:39:45;98175.09;;;11.08
22269;BMP280;11303;50.772;19.670;2022-11-04T09:44:17;98169.03;;;11.24
22269;BMP280;11303;50.772;19.670;2022-11-04T09:46:21;98169.31;;;11.29
22269;BMP280;11303;50.772;19.670;2022-11-04T09:48:33;98168.16;;;11.30
22269;BMP280;11303;50.772;19.670;2022-11-04T09:50:45;98163.31;;;11.25
22269;BMP280;11303;50.772;19.670;2022-11-04T09:52:53;98167.22;;;11.21
22269;BMP280;11303;50.772;19.670;2022-11-04T09:55:03;98165.56;;;11.27
22269;BMP280;11303;50.772;19.670;2022-11-04T09:57:16;98169.31;;;11.29
22269;BMP280;11303;50.772;19.670;2022-11-04T09:59:24;98161.00;;;11.27
22269;BMP280;11303;50.772;19.670;2022-11-04T10:01:33;98151.69;;;11.19
22269;BMP280;11303;50.772;19.670;2022-11-04T10:11:01;98158.34;;;11.11
22269;BMP280;11303;50.772;19.670;2022-11-04T10:13:14;98153.34;;;11.13
22269;BMP280;11303;50.772;19.670;2022-11-04T10:22:56;98154.47;;;11.16
22269;BMP280;11303;50.772;19.670;2022-11-04T10:25:13;98155.91;;;11.17
22269;BMP280;11303;50.772;19.670;2022-11-04T10:27:17;98156.34;;;11.15
22269;BMP280;11303;50.772;19.670;2022-11-04T10:29:48;98154.03;;;11.17
22269;BMP280;11303;50.772;19.670;2022-11-04T10:31:51;98152.50;;;11.16
22269;BMP280;11303;50.772;19.670;2022-11-04T10:34:04;98154.47;;;11.16
22269;BMP280;11303;50.772;19.670;2022-11-04T10:36:09;98156.28;;;11.19
22269;BMP280;11303;50.772;19.670;2022-11-04T10:38:18;98154.72;;;11.21
22269;BMP280;11303;50.772;19.670;2022-11-04T10:40:24;98166.38;;;11.24
22269;BMP280;11303;50.772;19.670;2022-11-04T10:42:26;98154.63;;;11.25
22269;BMP280;11303;50.772;19.670;2022-11-04T10:44:30;98150.41;;;11.27
22269;BMP280;11303;50.772;19.670;2022-11-04T10:51:26;98148.38;;;11.31
22269;BMP280;11303;50.772;19.670;2022-11-04T10:53:31;98154.28;;;11.39
22269;BMP280;11303;50.772;19.670;2022-11-04T10:56:14;98150.09;;;11.41
22269;BMP280;11303;50.772;19.670;2022-11-04T10:58:24;98143.97;;;11.44
22269;BMP280;11303;50.772;19.670;2022-11-04T11:00:38;98133.22;;;11.48
22269;BMP280;11303;50.772;19.670;2022-11-04T11:02:45;98132.41;;;11.51
22269;BMP280;11303;50.772;19.670;2022-11-04T11:04:47;98122.53;;;11.51
22269;BMP280;11303;50.772;19.670;2022-11-04T11:06:50;98133.06;;;11.55
22269;BMP280;11303;50.772;19.670;2022-11-04T11:08:56;98131.81;;;11.59
22269;BMP280;11303;50.772;19.670;2022-11-04T11:10:58;98123.13;;;11.59
22269;BMP280;11303;50.772;19.670;2022-11-04T11:13:05;98120.34;;;11.62
22269;BMP280;11303;50.772;19.670;2022-11-04T11:17:36;98116.03;;;11.68
22269;BMP280;11303;50.772;19.670;2022-11-04T11:19:59;98117.53;;;11.69
22269;BMP280;11303;50.772;19.670;2022-11-04T11:22:03;98112.91;;;11.73
22269;BMP280;11303;50.772;19.670;2022-11-04T11:24:13;98122.91;;;11.82
22269;BMP280;11303;50.772;19.670;2022-11-04T11:26:21;98108.72;;;11.88
22269;BMP280;11303;50.772;19.670;2022-11-04T11:28:30;98107.13;;;11.91
22269;BMP280;11303;50.772;19.670;2022-11-04T11:32:46;98110.88;;;11.93
22269;BMP280;11303;50.772;19.670;2022-11-04T11:34:53;98112.28;;;11.98
22269;BMP280;11303;50.772;19.670;2022-11-04T11:36:56;98106.19;;;11.97
22269;BMP280;11303;50.772;19.670;2022-11-04T11:39:04;98097.22;;;12.07
22269;BMP280;11303;50.772;19.670;2022-11-04T11:41:08;98095.13;;;12.15
22269;BMP280;11303;50.772;19.670;2022-11-04T11:43:30;98085.13;;;12.19
22269;BMP280;11303;50.772;19.670;2022-11-04T11:45:32;98094.19;;;12.34
22269;BMP280;11303;50.772;19.670;2022-11-04T11:47:35;98090.09;;;12.45
22269;BMP280;11303;50.772;19.670;2022-11-04T11:49:38;98093.50;;;12.58
22269;BMP280;11303;50.772;19.670;2022-11-04T11:51:40;98087.47;;;12.70
22269;BMP280;11303;50.772;19.670;2022-11-04T11:54:14;98086.06;;;12.66
22269;BMP280;11303;50.772;19.670;2022-11-04T11:56:29;98088.31;;;12.67
22269;BMP280;11303;50.772;19.670;2022-11-04T11:59:05;98085.31;;;12.65
22269;BMP280;11303;50.772;19.670;2022-11-04T12:01:35;98088.84;;;12.62
22269;BMP280;11303;50.772;19.670;2022-11-04T12:03:47;98089.25;;;12.61
22269;BMP280;11303;50.772;19.670;2022-11-04T12:06:22;98081.69;;;12.59
22269;BMP280;11303;50.772;19.670;2022-11-04T12:09:00;98085.53;;;12.58
22269;BMP280;11303;50.772;19.670;2022-11-04T12:11:27;98083.72;;;12.55
22269;BMP280;11303;50.772;19.670;2022-11-04T12:13:39;98084.91;;;12.54
22269;BMP280;11303;50.772;19.670;2022-11-04T12:20:31;98070.22;;;12.62
22269;BMP280;11303;50.772;19.670;2022-11-04T12:23:29;98063.53;;;12.70
22269;BMP280;11303;50.772;19.670;2022-11-04T12:25:43;98063.41;;;12.86
22269;BMP280;11303;50.772;19.670;2022-11-04T12:28:03;98063.19;;;12.93
22269;BMP280;11303;50.772;19.670;2022-11-04T12:30:14;98061.41;;;12.90
22269;BMP280;11303;50.772;19.670;2022-11-04T12:39:14;98054.47;;;12.80
22269;BMP280;11303;50.772;19.670;2022-11-04T12:41:31;98050.22;;;12.83
22269;BMP280;11303;50.772;19.670;2022-11-04T12:44:34;98048.00;;;12.81
22269;BMP280;11303;50.772;19.670;2022-11-04T12:49:42;98036.56;;;12.93
22269;BMP280;11303;50.772;19.670;2022-11-04T12:51:20;98030.28;;;13.00
22269;BMP280;11303;50.772;19.670;2022-11-04T13:00:09;98027.72;;;13.21
22269;BMP280;11303;50.772;19.670;2022-11-04T13:02:22;98029.19;;;13.22
22269;BMP280;11303;50.772;19.670;2022-11-04T13:04:45;98029.19;;;13.22
22269;BMP280;11303;50.772;19.670;2022-11-04T13:06:56;98033.66;;;13.25
22269;BMP280;11303;50.772;19.670;2022-11-04T13:09:04;98032.81;;;13.28
22269;BMP280;11303;50.772;19.670;2022-11-04T13:11:16;98027.16;;;13.26
22269;BMP280;11303;50.772;19.670;2022-11-04T13:13:30;98030.16;;;13.28
22269;BMP280;11303;50.772;19.670;2022-11-04T13:15:42;98040.88;;;13.25
22269;BMP280;11303;50.772;19.670;2022-11-04T13:17:46;98043.38;;;13.19
22269;BMP280;11303;50.772;19.670;2022-11-04T13:19:51;98038.88;;;13.16
22269;BMP280;11303;50.772;19.670;2022-11-04T13:21:55;98039.75;;;13.13